Time;durP1;ratioP1;P1;durP2;ratioP2;P2;SDS_P1;SDS_P2;PMS_P1;PMS_P2;Temp;Humidity;BMP_temperature;BMP_pressure;BME280_temperature;BME280_humidity;BME280_pressure;Samples;Min_cycle;Max_cycle;Signal;HPM_P1;HPM_P2
2022/03/19 00:01:50;;;;;;;11.23;4.50;;;;;;;-1.00;40.65;101720.66;5034439;28;20050;-75
2022/03/19 00:04:16;;;;;;;8.75;4.90;;;;;;;-1.03;41.00;101713.66;5018067;28;20091;-75
2022/03/19 00:06:42;;;;;;;11.57;5.80;;;;;;;-1.15;40.91;101716.16;5034373;28;20041;-76
2022/03/19 00:09:08;;;;;;;12.10;5.30;;;;;;;-1.14;41.33;101717.06;5035882;28;20483;-76
2022/03/19 00:11:34;;;;;;;11.30;4.90;;;;;;;-1.14;40.89;101717.06;5034243;28;20049;-77
2022/03/19 00:14:00;;;;;;;10.35;4.43;;;;;;;-1.10;40.84;101714.88;5034208;28;20045;-77
2022/03/19 00:16:25;;;;;;;11.00;5.10;;;;;;;-1.18;41.34;101712.53;5034474;28;20042;-78
2022/03/19 00:18:51;;;;;;;13.70;4.60;;;;;;;-1.20;41.07;101711.50;5034094;28;20547;-76
2022/03/19 00:21:17;;;;;;;10.60;5.13;;;;;;;-1.35;41.65;101695.94;5035709;28;20041;-77
2022/03/19 00:23:42;;;;;;;13.25;4.97;;;;;;;-1.31;41.69;101705.59;5030811;28;20397;-76
2022/03/19 00:26:08;;;;;;;21.75;5.35;;;;;;;-1.39;42.50;101706.66;5046155;28;20124;-76
2022/03/19 00:28:37;;;;;;;10.30;4.78;;;;;;;-1.46;42.46;101700.25;5042882;28;20489;-77
2022/03/19 00:31:03;;;;;;;14.95;5.15;;;;;;;-1.47;42.19;101700.09;5053405;28;20041;-76
2022/03/19 00:33:29;;;;;;;;;;;;;;;-1.42;41.90;101706.41;5020993;28;20037;-76
2022/03/19 00:35:54;;;;;;;21.45;10.00;;;;;;;-1.43;42.41;101704.66;5055023;28;19917;-76
2022/03/19 00:38:20;;;;;;;12.60;6.05;;;;;;;-1.42;41.57;101708.97;5053582;28;20087;-76
2022/03/19 00:40:46;;;;;;;10.50;4.82;;;;;;;-1.48;42.63;101708.50;5053787;28;20037;-77
2022/03/19 00:43:11;;;;;;;14.13;5.93;;;;;;;-1.56;43.01;101707.91;5035204;28;20431;-76
2022/03/19 00:45:37;;;;;;;12.80;5.25;;;;;;;-1.59;42.46;101720.41;5036810;28;20048;-76
2022/03/19 00:48:03;;;;;;;11.50;4.88;;;;;;;-1.58;42.83;101712.91;5036965;28;20123;-76
2022/03/19 00:50:29;;;;;;;15.20;5.45;;;;;;;-1.59;42.95;101711.13;5054475;28;20041;-76
2022/03/19 00:52:54;;;;;;;14.20;4.63;;;;;;;-1.66;43.30;101715.59;5033307;28;20048;-77
2022/03/19 00:55:20;;;;;;;11.00;5.57;;;;;;;-1.62;42.83;101715.97;5033344;28;20048;-76
2022/03/19 00:57:47;;;;;;;12.27;5.10;;;;;;;-1.67;42.87;101714.72;5036715;28;20496;-77
2022/03/19 01:00:14;;;;;;;12.32;5.20;;;;;;;-1.73;43.69;101713.38;5051627;28;20500;-78
2022/03/19 01:02:43;;;;;;;18.23;5.80;;;;;;;-1.74;43.28;101709.94;5041808;28;20507;-76
2022/03/19 01:05:09;;;;;;;11.27;5.07;;;;;;;-1.76;43.63;101716.56;5035878;28;20052;-76
2022/03/19 01:07:51;;;;;;;16.58;5.15;;;;;;;-1.77;43.40;101708.81;5041364;28;20032;-76
2022/03/19 01:10:20;;;;;;;14.88;5.28;;;;;;;-1.75;43.33;101715.78;5035177;28;20399;-77
2022/03/19 01:12:47;;;;;;;11.55;5.13;;;;;;;-1.75;43.58;101713.25;5052838;28;20392;-77
2022/03/19 01:15:12;;;;;;;11.05;5.00;;;;;;;-1.76;43.45;101711.47;5045354;28;20065;-77
2022/03/19 01:17:39;;;;;;;9.38;4.70;;;;;;;-1.78;43.38;101713.03;5048698;28;20048;-77
2022/03/19 01:20:06;;;;;;;15.98;5.35;;;;;;;-1.83;43.43;101712.66;5044210;28;20041;-77
2022/03/19 01:22:32;;;;;;;11.38;4.93;;;;;;;-1.93;43.99;101717.78;5036554;28;20519;-77
2022/03/19 01:25:03;;;;;;;;;;;;;;;-2.02;44.62;101723.78;5053128;28;20132;-78
2022/03/19 01:27:30;;;;;;;21.35;5.30;;;;;;;-1.98;44.05;101723.28;5052207;28;19927;-78
2022/03/19 01:29:55;;;;;;;;;;;;;;;-2.07;44.56;101726.84;5053322;28;20028;-78
2022/03/19 01:32:21;;;;;;;12.30;5.43;;;;;;;-2.05;44.47;101729.53;5053672;28;19946;-77
2022/03/19 01:34:47;;;;;;;11.05;4.95;;;;;;;-2.08;44.77;101727.63;5039391;28;20063;-78
2022/03/19 01:37:12;;;;;;;14.95;6.40;;;;;;;-2.03;44.17;101729.66;5052141;28;20048;-77
2022/03/19 01:39:38;;;;;;;17.45;7.70;;;;;;;-2.04;43.82;101726.22;5053749;28;20041;-77
2022/03/19 01:42:04;;;;;;;14.35;6.03;;;;;;;-2.07;44.13;101731.06;5053941;28;20032;-77
2022/03/19 01:44:30;;;;;;;10.35;5.25;;;;;;;-2.01;44.08;101728.13;5051578;28;20388;-77
2022/03/19 01:46:59;;;;;;;10.68;5.43;;;;;;;-2.09;44.50;101728.41;5037356;28;20124;-77
2022/03/19 01:49:24;;;;;;;11.85;5.65;;;;;;;-2.08;44.14;101726.75;5053659;28;20048;-77
2022/03/19 01:51:50;;;;;;;9.90;4.82;;;;;;;-2.08;44.69;101730.16;5002243;28;20074;-77
2022/03/19 01:54:16;;;;;;;13.10;5.30;;;;;;;-2.16;44.82;101730.31;5042624;28;20036;-77
2022/03/19 01:56:43;;;;;;;13.55;5.88;;;;;;;-2.35;44.97;101730.50;5050794;28;20041;-77
2022/03/19 01:59:08;;;;;;;12.50;6.00;;;;;;;-2.36;45.12;101726.19;5015798;28;20168;-77
2022/03/19 02:01:35;;;;;;;12.23;5.28;;;;;;;-2.32;45.15;101733.31;5016147;28;20038;-77
2022/03/19 02:04:00;;;;;;;13.02;5.80;;;;;;;-2.35;45.02;101726.31;5052008;28;20056;-77
2022/03/19 02:06:26;;;;;;;12.38;5.32;;;;;;;-2.37;45.01;101734.59;5035478;28;20514;-77
2022/03/19 02:08:53;;;;;;;12.25;5.38;;;;;;;-2.37;45.21;101740.56;5051811;28;20036;-77
2022/03/19 02:11:18;;;;;;;15.13;6.45;;;;;;;-2.40;44.87;101734.34;5052131;28;20088;-77
2022/03/19 02:13:44;;;;;;;18.13;8.57;;;;;;;-2.37;44.93;101737.13;5051868;28;20609;-77
2022/03/19 02:16:11;;;;;;;16.13;6.65;;;;;;;-2.36;45.52;101736.38;5043350;28;20049;-77
2022/03/19 02:18:37;;;;;;;14.80;5.65;;;;;;;-2.42;45.00;101735.88;5047789;28;20120;-77
2022/03/19 02:21:02;;;;;;;12.45;5.50;;;;;;;-2.41;45.28;101737.66;5053178;28;20041;-78
2022/03/19 02:26:13;;;;;;;15.27;5.60;;;;;;;-2.43;44.97;101726.47;5052168;28;20044;-77
2022/03/19 02:28:38;;;;;;;14.10;5.07;;;;;;;-2.44;45.21;101733.19;5022519;28;20025;-77
2022/03/19 02:31:04;;;;;;;17.23;5.00;;;;;;;-2.42;45.60;101735.88;5050316;28;20036;-76
2022/03/19 02:33:30;;;;;;;13.40;5.47;;;;;;;-2.42;45.49;101735.88;5051582;28;20079;-76
2022/03/19 02:35:55;;;;;;;17.13;5.10;;;;;;;-2.46;46.12;101734.75;5051607;28;20504;-76
2022/03/19 02:38:21;;;;;;;10.43;5.00;;;;;;;-2.50;45.98;101731.81;5052738;28;20033;-76
2022/03/19 02:40:46;;;;;;;16.35;6.10;;;;;;;-2.51;46.22;101737.69;5034811;28;20040;-76
2022/03/19 02:43:12;;;;;;;11.07;5.22;;;;;;;-2.49;46.05;101738.69;5051584;28;20102;-76
2022/03/19 02:45:39;;;;;;;;;;;;;;;-2.54;45.89;101739.97;5035529;28;20131;-77
2022/03/19 02:48:05;;;;;;;20.67;5.80;;;;;;;-2.57;45.59;101738.97;5051762;28;19966;-76
2022/03/19 02:50:35;;;;;;;15.88;5.32;;;;;;;-2.62;46.30;101735.13;5051347;28;20044;-77
2022/03/19 02:53:08;;;;;;;17.95;5.90;;;;;;;-2.68;46.06;101736.28;5051271;28;20041;-78
2022/03/19 02:55:38;;;;;;;16.50;5.40;;;;;;;-2.64;46.57;101738.31;5035718;28;20044;-77
2022/03/19 02:58:05;;;;;;;12.95;6.03;;;;;;;-2.65;46.77;101742.53;5032179;28;20431;-77
2022/03/19 03:00:32;;;;;;;14.60;5.80;;;;;;;-2.66;46.36;101737.28;5021921;28;20056;-77
2022/03/19 03:02:58;;;;;;;18.88;8.15;;;;;;;-2.70;46.03;101743.81;5034756;28;20053;-77
2022/03/19 03:05:23;;;;;;;17.95;6.38;;;;;;;-2.69;46.69;101740.50;5004354;28;20056;-77
2022/03/19 03:07:49;;;;;;;12.63;6.20;;;;;;;-2.67;46.54;101759.28;5051589;28;20037;-77
2022/03/19 03:10:15;;;;;;;14.00;5.43;;;;;;;-2.72;46.39;101745.31;5052925;28;20048;-77
2022/03/19 03:12:41;;;;;;;11.52;5.38;;;;;;;-2.79;47.18;101752.28;5044748;28;20045;-77
2022/03/19 03:15:07;;;;;;;11.40;5.95;;;;;;;-2.81;46.72;101747.09;5042312;28;20396;-78
2022/03/19 03:17:34;;;;;;;15.90;5.40;;;;;;;-2.84;46.95;101744.28;5035914;28;20048;-77
2022/03/19 03:20:00;;;;;;;12.18;6.03;;;;;;;-2.86;47.16;101743.28;5033983;28;20028;-77
2022/03/19 03:22:27;;;;;;;16.70;5.95;;;;;;;-2.94;47.60;101752.78;5046196;28;20044;-78
2022/03/19 03:24:53;;;;;;;11.45;5.97;;;;;;;-2.90;46.89;101751.41;5051341;28;20063;-77
2022/03/19 03:27:19;;;;;;;19.15;5.93;;;;;;;-2.85;47.58;101748.47;5039569;28;20037;-77
2022/03/19 03:29:44;;;;;;;14.75;5.57;;;;;;;-2.79;47.01;101745.59;5046394;28;20095;-76
2022/03/19 03:32:10;;;;;;;18.45;5.75;;;;;;;-2.82;46.87;101743.66;5041464;28;20412;-77
2022/03/19 03:34:37;;;;;;;18.45;5.78;;;;;;;-2.85;47.10;101753.56;5034419;28;20044;-77
2022/03/19 03:37:03;;;;;;;17.45;6.60;;;;;;;-2.89;47.47;101746.44;5050730;28;20037;-76
2022/03/19 03:39:28;;;;;;;13.13;6.57;;;;;;;-2.93;47.68;101740.97;5034566;28;20537;-77
2022/03/19 03:41:54;;;;;;;23.65;6.13;;;;;;;-2.90;47.80;101753.94;5052044;28;20479;-77
2022/03/19 03:44:20;;;;;;;26.73;6.40;;;;;;;-2.91;48.15;101753.06;5052160;28;20041;-77
2022/03/19 03:46:45;;;;;;;14.75;5.88;;;;;;;-2.85;47.78;101755.22;5052605;28;20107;-76
2022/03/19 03:49:13;;;;;;;17.95;7.00;;;;;;;-2.92;47.96;101760.56;5050504;28;20491;-77
2022/03/19 03:51:39;;;;;;;19.15;6.72;;;;;;;-2.91;47.73;101757.25;5050659;28;20045;-78
2022/03/19 03:54:06;;;;;;;15.25;5.95;;;;;;;-2.98;48.26;101758.38;5052276;28;20094;-77
2022/03/19 03:56:32;;;;;;;21.13;6.63;;;;;;;-3.00;47.95;101756.50;5052237;28;20047;-77
2022/03/19 03:58:57;;;;;;;19.77;9.90;;;;;;;-3.03;47.63;101764.72;5052222;28;20041;-77
2022/03/19 04:01:23;;;;;;;20.13;6.80;;;;;;;-2.97;47.69;101761.84;5041648;28;20562;-77
2022/03/19 04:03:49;;;;;;;23.38;6.03;;;;;;;-2.95;47.78;101762.84;5055475;28;20088;-77
2022/03/19 04:06:14;;;;;;;23.33;6.68;;;;;;;-2.98;48.30;101760.91;5037797;28;20052;-77
2022/03/19 04:08:40;;;;;;;28.00;6.45;;;;;;;-3.00;48.19;101764.09;5037594;28;20123;-78
2022/03/19 04:11:06;;;;;;;21.13;6.03;;;;;;;-2.96;48.18;101769.56;5055368;28;20036;-76
2022/03/19 04:13:32;;;;;;;31.55;6.82;;;;;;;-3.03;48.32;101771.47;5055379;28;20041;-76
2022/03/19 04:15:57;;;;;;;36.15;6.97;;;;;;;-3.05;48.56;101767.91;5029614;28;20484;-76
2022/03/19 04:18:23;;;;;;;26.75;6.75;;;;;;;-3.04;48.48;101779.84;5037542;28;20098;-76
2022/03/19 04:20:49;;;;;;;;;;;;;;;-3.02;48.40;101775.78;5041502;28;20056;-76
2022/03/19 04:23:14;;;;;;;24.65;7.03;;;;;;;-2.99;48.58;101773.50;5054048;28;19917;-77
2022/03/19 04:25:40;;;;;;;26.20;6.10;;;;;;;-2.93;48.20;101774.91;5053472;28;20048;-77
2022/03/19 04:28:06;;;;;;;21.10;6.63;;;;;;;-2.87;48.92;101774.53;5041927;28;20543;-77
2022/03/19 04:30:32;;;;;;;39.28;6.65;;;;;;;-2.84;48.40;101775.69;5055200;28;20037;-77
2022/03/19 04:32:59;;;;;;;26.33;7.07;;;;;;;-2.81;48.06;101780.09;5054906;28;20033;-76
2022/03/19 04:38:11;;;;;;;19.27;6.32;;;;;;;-2.73;48.10;101786.72;5039955;28;20037;-77
2022/03/19 04:40:37;;;;;;;27.73;6.63;;;;;;;-2.66;47.80;101790.63;5054273;28;20035;-77
2022/03/19 04:43:02;;;;;;;27.98;6.40;;;;;;;-2.68;48.44;101788.00;5033764;28;20043;-77
2022/03/19 04:45:28;;;;;;;23.08;6.97;;;;;;;-2.68;48.38;101793.06;5041734;28;20048;-77
2022/03/19 04:47:54;;;;;;;25.05;6.72;;;;;;;-2.74;48.54;101792.56;5053434;28;20041;-77
2022/03/19 04:50:19;;;;;;;28.67;7.53;;;;;;;-2.72;48.13;101785.94;5053396;28;20082;-77
2022/03/19 04:52:45;;;;;;;25.42;8.68;;;;;;;-2.67;48.27;101794.84;5053453;28;20431;-77
2022/03/19 04:55:11;;;;;;;24.65;7.10;;;;;;;-2.66;48.39;101795.72;5037574;28;20099;-77
2022/03/19 04:57:37;;;;;;;25.13;7.38;;;;;;;-2.59;48.23;101796.38;5020159;28;20411;-77
2022/03/19 05:00:04;;;;;;;26.65;6.75;;;;;;;-2.50;47.84;101796.25;5051162;28;20109;-76
2022/03/19 05:02:30;;;;;;;21.90;7.07;;;;;;;-2.48;47.89;101789.63;5009343;28;20148;-76
2022/03/19 05:04:56;;;;;;;26.02;7.15;;;;;;;-2.37;47.45;101791.41;5037520;28;20042;-78
2022/03/19 05:07:22;;;;;;;23.20;7.95;;;;;;;-2.27;47.56;101793.03;5033872;28;20060;-76
2022/03/19 05:12:35;;;;;;;19.92;6.45;;;;;;;-2.16;46.39;101807.50;5034805;28;20472;-77
2022/03/19 05:15:02;;;;;;;15.80;5.82;;;;;;;-2.03;46.05;101803.41;5017161;28;20033;-76
2022/03/19 05:17:27;;;;;;;;;;;;;;;-1.98;46.09;101794.47;5032954;28;20110;-76
2022/03/19 05:19:53;;;;;;;21.30;6.28;;;;;;;-1.94;45.46;101802.47;5034494;28;19912;-77
2022/03/19 05:22:19;;;;;;;25.35;6.15;;;;;;;-1.87;46.17;101798.78;5031360;28;20064;-77
2022/03/19 05:24:44;;;;;;;18.83;6.10;;;;;;;-1.82;45.00;101794.97;5031917;28;20045;-77
2022/03/19 05:27:11;;;;;;;22.77;5.80;;;;;;;-1.80;44.73;101795.94;5032855;28;20037;-77
2022/03/19 05:29:38;;;;;;;18.38;5.57;;;;;;;-1.77;44.59;101802.94;5031841;28;20404;-77
2022/03/19 05:32:05;;;;;;;16.15;6.32;;;;;;;-1.75;44.88;101798.84;5031341;28;20029;-76
2022/03/19 05:34:31;;;;;;;28.02;6.40;;;;;;;-1.72;44.41;101797.44;5032245;28;20029;-77
2022/03/19 05:37:06;;;;;;;22.25;6.20;;;;;;;-1.71;44.45;101801.78;5033449;28;20083;-79
2022/03/19 05:39:32;;;;;;;17.60;6.72;;;;;;;-1.67;44.51;101803.78;5032251;28;20037;-77
2022/03/19 05:41:59;;;;;;;17.85;6.60;;;;;;;-1.61;44.35;101805.94;5034495;28;20037;-77
2022/03/19 05:44:24;;;;;;;16.58;6.28;;;;;;;-1.42;43.77;101798.06;5032497;28;20041;-77
2022/03/19 05:46:50;;;;;;;11.90;5.25;;;;;;;-1.24;43.72;101804.59;5033974;28;20041;-75
2022/03/19 05:49:16;;;;;;;12.23;5.93;;;;;;;-1.13;43.48;101803.78;5032594;28;20439;-76
2022/03/19 05:51:41;;;;;;;16.88;6.07;;;;;;;-1.05;43.30;101807.81;5015210;28;20044;-78
2022/03/19 05:54:09;;;;;;;15.60;6.15;;;;;;;-0.95;42.83;101804.28;5031743;28;20076;-78
2022/03/19 05:56:35;;;;;;;15.65;6.60;;;;;;;-0.85;42.95;101808.44;5033182;28;20408;-78
2022/03/19 05:59:00;;;;;;;13.82;5.75;;;;;;;-0.76;42.95;101806.56;5032257;28;20116;-77
2022/03/19 06:01:26;;;;;;;17.15;5.80;;;;;;;-0.68;42.87;101810.59;5034205;28;20650;-77
2022/03/19 06:03:53;;;;;;;20.00;6.22;;;;;;;-0.68;42.88;101823.34;5053035;28;20056;-79
2022/03/19 06:06:18;;;;;;;20.30;5.80;;;;;;;-0.68;42.97;101825.00;5035412;28;20045;-78
2022/03/19 06:08:44;;;;;;;17.65;6.00;;;;;;;-0.67;42.96;101826.78;5035272;28;20094;-78
2022/03/19 06:11:10;;;;;;;;;;;;;;;-0.62;43.19;101820.34;5041684;28;20504;-76
2022/03/19 06:13:36;;;;;;;18.33;6.38;;;;;;;-0.56;43.13;101813.16;5047044;28;20003;-79
2022/03/19 06:16:02;;;;;;;16.70;5.72;;;;;;;-0.46;42.99;101814.72;5034771;28;20048;-78
2022/03/19 06:18:29;;;;;;;15.85;6.35;;;;;;;-0.40;43.31;101815.22;5051813;28;20490;-78
2022/03/19 06:20:56;;;;;;;16.45;6.35;;;;;;;-0.36;43.23;101807.91;5035894;28;20179;-77
2022/03/19 06:23:22;;;;;;;15.80;6.38;;;;;;;-0.30;42.86;101804.91;5053422;28;20040;-79
2022/03/19 06:25:48;;;;;;;19.95;7.07;;;;;;;-0.23;43.01;101806.22;5052952;28;20120;-76
2022/03/19 06:28:14;;;;;;;12.73;6.70;;;;;;;-0.12;42.97;101808.81;5021502;28;20101;-77
2022/03/19 06:30:40;;;;;;;15.85;7.07;;;;;;;-0.03;43.37;101809.47;5047531;28;20492;-79
2022/03/19 06:33:06;;;;;;;13.70;7.10;;;;;;;0.04;43.14;101803.13;5052691;28;20503;-78
2022/03/19 06:38:18;;;;;;;19.07;6.80;;;;;;;0.16;42.81;101798.94;5051676;28;20044;-79
2022/03/19 06:40:44;;;;;;;22.17;8.20;;;;;;;0.32;42.92;101807.66;5026634;28;20060;-78
2022/03/19 06:43:12;;;;;;;21.00;9.55;;;;;;;0.36;43.33;101813.09;5051377;28;20033;-78
2022/03/19 06:45:38;;;;;;;20.58;8.30;;;;;;;0.47;42.92;101809.66;5052894;28;20055;-79
2022/03/19 06:48:04;;;;;;;19.27;8.27;;;;;;;0.56;42.71;101809.44;5051764;28;20041;-79
2022/03/19 06:50:30;;;;;;;22.05;8.05;;;;;;;0.62;42.39;101814.06;5033635;28;20042;-78
2022/03/19 06:52:56;;;;;;;18.83;10.00;;;;;;;0.62;42.71;101808.97;5034181;28;20068;-77
2022/03/19 06:55:21;;;;;;;19.20;9.40;;;;;;;0.63;42.43;101809.06;5031571;28;20041;-78
2022/03/19 06:57:47;;;;;;;24.60;9.18;;;;;;;0.72;42.76;101813.94;5015620;28;20091;-81
2022/03/19 07:00:13;;;;;;;18.60;9.45;;;;;;;0.77;42.75;101815.13;5031669;28;20362;-78
2022/03/19 07:02:49;;;;;;;21.92;8.82;;;;;;;0.83;42.84;101818.13;5033205;28;20180;-79
2022/03/19 07:05:21;;;;;;;26.10;9.68;;;;;;;0.93;42.76;101806.88;5036365;28;20460;-79
2022/03/19 07:07:47;;;;;;;24.88;9.95;;;;;;;0.99;42.52;101803.06;5048417;28;20500;-78
2022/03/19 07:10:15;;;;;;;23.52;11.63;;;;;;;1.12;42.77;101811.56;5032244;28;20033;-77
2022/03/19 07:12:44;;;;;;;20.10;10.02;;;;;;;1.21;42.44;101812.19;5022038;28;20041;-77
2022/03/19 07:15:14;;;;;;;22.15;9.93;;;;;;;1.27;42.24;101810.03;5022991;28;20087;-77
2022/03/19 07:17:40;;;;;;;21.05;9.55;;;;;;;1.32;42.44;101812.91;5032605;28;20049;-77
2022/03/19 07:20:06;;;;;;;;;;;;;;;1.47;43.20;101822.53;5042572;28;20037;-77
2022/03/19 07:22:51;;;;;;;22.08;8.90;;;;;;;1.54;42.84;101826.34;5051389;28;19943;-75
2022/03/19 07:25:19;;;;;;;23.00;8.43;;;;;;;1.62;42.88;101816.66;5051472;28;20451;-77
2022/03/19 07:27:45;;;;;;;20.05;8.73;;;;;;;1.63;42.51;101818.41;5043585;28;20025;-78
2022/03/19 07:30:11;;;;;;;18.58;9.52;;;;;;;1.65;42.71;101821.94;5014839;28;20080;-78
2022/03/19 07:32:37;;;;;;;;;;;;;;;1.69;42.70;101818.81;5032724;28;20186;-77
2022/03/19 07:35:03;;;;;;;19.90;9.38;;;;;;;1.75;42.67;101820.13;5038125;28;19956;-82
2022/03/19 07:37:29;;;;;;;23.63;10.02;;;;;;;1.83;42.74;101820.59;5042044;28;20041;-79
2022/03/19 07:39:57;;;;;;;20.98;9.90;;;;;;;1.95;42.65;101825.66;5002620;28;20362;-80
2022/03/19 07:42:23;;;;;;;38.08;10.50;;;;;;;2.04;42.57;101829.69;5026537;28;20032;-79
2022/03/19 07:44:48;;;;;;;34.40;10.18;;;;;;;2.05;41.55;101825.44;5034676;28;20049;-76
2022/03/19 07:47:14;;;;;;;29.60;11.32;;;;;;;2.03;41.20;101827.03;5039159;28;20499;-77
2022/03/19 07:49:40;;;;;;;30.90;9.90;;;;;;;2.09;41.58;101826.53;5036267;28;20041;-78
2022/03/19 07:52:08;;;;;;;31.35;10.45;;;;;;;2.09;41.45;101834.22;5039957;28;20037;-78
2022/03/19 07:54:36;;;;;;;30.13;9.98;;;;;;;2.16;41.70;101828.72;5037388;28;20045;-78
2022/03/19 07:57:05;;;;;;;20.52;9.77;;;;;;;2.18;41.43;101829.69;5037202;28;20047;-78
2022/03/19 07:59:31;;;;;;;25.85;10.20;;;;;;;2.23;41.25;101815.50;5068927;28;20526;-78
2022/03/19 08:01:56;;;;;;;27.98;9.52;;;;;;;2.37;40.73;101824.94;5035550;28;20029;-78
2022/03/19 08:04:22;;;;;;;28.45;10.27;;;;;;;2.41;40.82;101821.78;5034830;28;20090;-77
2022/03/19 08:06:53;;;;;;;23.27;10.15;;;;;;;2.52;41.05;101810.56;5018177;28;20046;-79
2022/03/19 08:09:19;;;;;;;30.35;10.18;;;;;;;2.64;40.70;101810.44;4984357;28;20055;-80
2022/03/19 08:11:44;;;;;;;;;;;;;;;2.73;40.41;101813.56;5037230;28;20037;-79
2022/03/19 08:14:10;;;;;;;21.90;9.93;;;;;;;2.88;40.71;101800.78;5033815;28;19917;-79
2022/03/19 08:16:36;;;;;;;21.52;10.15;;;;;;;3.05;40.56;101805.28;5036584;28;20042;-78
2022/03/19 08:19:02;;;;;;;26.95;9.98;;;;;;;3.19;40.13;101815.47;5033948;28;20045;-80
2022/03/19 08:21:28;;;;;;;22.90;10.68;;;;;;;3.30;40.49;101814.47;5044511;28;20503;-78
2022/03/19 08:23:53;;;;;;;24.10;10.85;;;;;;;3.43;40.33;101813.47;5056930;28;20041;-80
2022/03/19 08:26:19;;;;;;;26.63;9.60;;;;;;;3.56;40.11;101810.84;5055113;28;20036;-81
2022/03/19 08:28:45;;;;;;;19.42;9.55;;;;;;;3.70;39.94;101803.94;5055264;28;20048;-81
2022/03/19 08:31:10;;;;;;;20.45;9.73;;;;;;;3.84;39.50;101813.31;5006710;28;20049;-82
2022/03/19 08:33:36;;;;;;;28.55;9.82;;;;;;;3.98;39.47;101812.41;5054997;28;20071;-81
2022/03/19 08:36:02;;;;;;;23.27;10.18;;;;;;;4.00;39.00;101813.41;5054487;28;20037;-80
2022/03/19 08:41:12;;;;;;;24.77;10.02;;;;;;;4.10;39.06;101816.50;5034329;28;20033;-81
2022/03/19 08:43:37;;;;;;;15.45;8.88;;;;;;;4.13;39.14;101816.69;5033969;28;20036;-80
2022/03/19 08:46:04;;;;;;;19.85;10.05;;;;;;;4.19;39.10;101817.00;5017135;28;20049;-79
2022/03/19 08:48:29;;;;;;;;;;;;;;;4.23;39.09;101827.56;5035668;28;20049;-81
2022/03/19 08:51:39;;;;;;;25.77;9.30;;;;;;;4.28;38.93;101833.81;5035242;28;19917;-79
2022/03/19 08:53:41;;;;;;;21.95;9.20;;;;;;;4.30;39.08;101826.19;5034326;28;20404;-79
2022/03/19 08:56:06;;;;;;;25.20;9.50;;;;;;;4.30;38.86;101834.78;5020576;28;20067;-79
2022/03/19 08:58:32;;;;;;;23.08;9.68;;;;;;;4.34;38.75;101838.41;5035572;28;20049;-81
2022/03/19 09:00:57;;;;;;;22.58;9.98;;;;;;;4.35;38.38;101840.19;5034850;28;20500;-82
2022/03/19 09:03:26;;;;;;;20.63;9.00;;;;;;;4.38;38.80;101840.34;5051334;28;20049;-80
2022/03/19 09:05:52;;;;;;;19.25;8.73;;;;;;;4.39;38.86;101833.53;5045611;28;20142;-80
2022/03/19 09:08:17;;;;;;;;;;;;;;;4.38;38.81;101835.22;5036657;28;20413;-82
2022/03/19 09:10:43;;;;;;;23.30;9.38;;;;;;;4.49;39.10;101841.84;5034488;28;19912;-80
2022/03/19 09:13:09;;;;;;;21.75;9.05;;;;;;;4.52;38.87;101836.88;5033098;28;20490;-80
2022/03/19 09:15:34;;;;;;;26.38;8.68;;;;;;;4.61;38.57;101838.19;5033419;28;20033;-80
2022/03/19 09:18:00;;;;;;;17.70;8.30;;;;;;;4.70;38.29;101844.69;5033206;28;20095;-79
2022/03/19 09:20:26;;;;;;;18.38;8.85;;;;;;;4.74;37.90;101845.75;5032750;28;20041;-80
2022/03/19 09:22:52;;;;;;;21.23;9.32;;;;;;;4.83;38.16;101851.41;5032691;28;20381;-80
2022/03/19 09:25:18;;;;;;;18.48;8.68;;;;;;;4.96;37.73;101838.41;5042740;28;20159;-80
2022/03/19 09:27:44;;;;;;;19.55;9.25;;;;;;;5.10;37.39;101847.72;5052462;28;20052;-81
2022/03/19 09:30:10;;;;;;;16.73;9.00;;;;;;;5.23;37.33;101848.38;5054201;28;20041;-79
2022/03/19 09:32:35;;;;;;;;;;;;;;;5.46;37.14;101847.88;5052859;28;20115;-80
2022/03/19 09:35:01;;;;;;;26.50;9.50;;;;;;;5.75;36.39;101845.91;5048365;28;19959;-80
2022/03/19 09:37:27;;;;;;;17.73;8.60;;;;;;;5.94;36.82;101838.31;5016189;28;20045;-80
2022/03/19 09:39:52;;;;;;;15.30;7.43;;;;;;;6.56;35.15;101837.88;5033657;28;20041;-80
2022/03/19 09:42:18;;;;;;;20.50;9.02;;;;;;;8.02;33.41;101832.25;5033631;28;20037;-79
2022/03/19 09:44:44;;;;;;;18.27;8.07;;;;;;;9.53;30.47;101831.06;5032360;28;20087;-81
2022/03/19 09:47:10;;;;;;;17.10;8.10;;;;;;;10.67;28.31;101828.75;5015748;28;20512;-80
2022/03/19 09:49:36;;;;;;;;;;;;;;;11.63;27.86;101818.47;5033896;28;20037;-83
2022/03/19 09:52:02;;;;;;;13.38;7.95;;;;;;;12.14;26.88;101824.97;5032600;28;19924;-82
2022/03/19 09:54:28;;;;;;;15.68;8.00;;;;;;;12.68;26.05;101816.69;5065879;28;21474;-80
2022/03/19 09:56:54;;;;;;;19.67;7.68;;;;;;;13.51;24.89;101807.94;5030153;28;20041;-82
2022/03/19 09:59:22;;;;;;;14.07;6.95;;;;;;;14.12;23.96;101812.47;5031817;28;20025;-81
2022/03/19 10:01:48;;;;;;;19.50;7.10;;;;;;;14.60;23.53;101821.03;5031967;28;20045;-80
2022/03/19 10:04:17;;;;;;;9.73;4.90;;;;;;;15.06;22.42;101813.78;5028806;28;20033;-79
2022/03/19 10:09:44;;;;;;;7.75;4.60;;;;;;;15.60;21.86;101813.50;5048435;28;20530;-81
2022/03/19 10:12:19;;;;;;;9.73;4.63;;;;;;;15.92;21.64;101807.72;5065338;28;20041;-81
2022/03/19 10:14:46;;;;;;;7.63;4.63;;;;;;;16.26;21.35;101807.13;5035597;28;20030;-80
2022/03/19 10:17:24;;;;;;;6.35;4.22;;;;;;;16.51;21.11;101812.50;5035029;28;20029;-80
2022/03/19 10:19:50;;;;;;;7.50;4.05;;;;;;;16.58;20.65;101814.28;5032523;28;20044;-80
2022/03/19 10:22:23;;;;;;;6.22;4.20;;;;;;;16.58;20.43;101819.50;5032617;28;20030;-77
2022/03/19 10:24:49;;;;;;;11.65;4.70;;;;;;;16.77;20.72;101816.19;5021768;28;20053;-79
2022/03/19 10:27:18;;;;;;;24.10;6.90;;;;;;;16.79;20.34;101821.41;5029571;28;20064;-79
2022/03/19 10:29:44;;;;;;;10.85;5.10;;;;;;;16.71;20.41;101818.72;5032415;28;20082;-78
2022/03/19 10:32:10;;;;;;;11.43;4.15;;;;;;;16.79;20.12;101823.16;5033340;28;20400;-79
2022/03/19 10:34:40;;;;;;;8.38;4.38;;;;;;;16.93;20.41;101813.63;5047992;28;20594;-79
2022/03/19 10:37:06;;;;;;;10.35;3.70;;;;;;;17.40;19.72;101818.13;5031751;28;20033;-79
2022/03/19 10:39:31;;;;;;;6.70;3.90;;;;;;;17.62;19.31;101814.66;5043506;28;20025;-79
2022/03/19 10:41:58;;;;;;;5.10;3.70;;;;;;;17.84;19.08;101810.34;5039584;28;20041;-79
2022/03/19 10:44:25;;;;;;;9.77;3.60;;;;;;;18.57;19.04;101806.75;5036125;28;20362;-78
2022/03/19 10:46:52;;;;;;;11.60;3.72;;;;;;;19.18;18.75;101809.16;5033015;28;20050;-81
2022/03/19 10:49:19;;;;;;;10.95;3.78;;;;;;;19.11;18.23;101807.44;5034807;28;20155;-80
2022/03/19 10:51:46;;;;;;;10.43;4.10;;;;;;;19.04;18.18;101803.09;5033786;28;20490;-76
2022/03/19 10:54:12;;;;;;;8.65;3.83;;;;;;;18.78;18.19;101806.72;5049922;28;20065;-78
2022/03/19 10:56:38;;;;;;;7.85;3.65;;;;;;;18.87;18.43;101803.16;5034492;28;20472;-76
2022/03/19 10:59:03;;;;;;;10.90;3.70;;;;;;;18.94;18.20;101799.63;5034783;28;20024;-79
2022/03/19 11:01:29;;;;;;;10.52;4.07;;;;;;;19.09;17.81;101798.69;5038231;28;20057;-79
2022/03/19 11:03:55;;;;;;;6.13;3.45;;;;;;;19.15;17.61;101800.38;5017981;28;20060;-79
2022/03/19 11:06:21;;;;;;;6.78;3.65;;;;;;;19.33;17.49;101808.19;5038132;28;20048;-79
2022/03/19 11:08:47;;;;;;;9.27;4.13;;;;;;;19.51;17.65;101804.56;5042139;28;20067;-78
2022/03/19 11:11:21;;;;;;;7.15;3.67;;;;;;;20.23;18.58;101810.13;5037436;28;20044;-79
2022/03/19 11:13:49;;;;;;;6.38;3.38;;;;;;;20.75;17.04;101798.19;5035958;28;20477;-78
2022/03/19 11:16:15;;;;;;;5.43;3.33;;;;;;;20.63;16.13;101804.50;5021499;28;20025;-79
2022/03/19 11:18:42;;;;;;;5.40;3.20;;;;;;;20.17;16.58;101806.72;5052692;28;20088;-77
2022/03/19 11:21:09;;;;;;;5.32;3.40;;;;;;;20.06;16.87;101801.50;5036124;28;20029;-77
2022/03/19 11:23:58;;;;;;;5.80;3.45;;;;;;;20.07;16.87;101800.66;5035279;28;20429;-78
2022/03/19 11:26:27;;;;;;;8.20;3.80;;;;;;;19.90;16.88;101797.28;5018242;28;20057;-76
2022/03/19 11:28:53;;;;;;;13.40;4.35;;;;;;;20.27;16.93;101793.41;5053616;28;20069;-79
2022/03/19 11:31:27;;;;;;;5.22;3.35;;;;;;;20.39;16.64;101796.78;5053973;28;20439;-79
2022/03/19 11:33:56;;;;;;;6.43;3.25;;;;;;;20.81;16.27;101796.34;5043400;28;20045;-76
2022/03/19 11:36:22;;;;;;;9.90;3.80;;;;;;;21.49;15.92;101793.69;5053742;28;20563;-79
2022/03/19 11:38:52;;;;;;;8.10;3.50;;;;;;;21.34;15.66;101800.94;5043043;28;20124;-76